Time;durP1;ratioP1;P1;durP2;ratioP2;P2;SDS_P1;SDS_P2;PMS_P1;PMS_P2;Temp;Humidity;BMP_temperature;BMP_pressure;BME280_temperature;BME280_humidity;BME280_pressure;Samples;Min_cycle;Max_cycle;Signal;HPM_P1;HPM_P2
2023/01/06 00:02:05;;;;;;;1.90;0.30;;;9.20;89.70;;;;;;4998306;28;87574;-75
2023/01/06 00:04:31;;;;;;;2.00;0.38;;;9.20;89.80;;;;;;4995398;28;87817;-75
2023/01/06 00:06:57;;;;;;;1.55;0.20;;;9.20;89.50;;;;;;4996448;28;86542;-75
2023/01/06 00:09:22;;;;;;;1.65;0.20;;;9.20;89.50;;;;;;4996022;28;87523;-75
2023/01/06 00:11:48;;;;;;;1.05;0.20;;;9.20;89.70;;;;;;4994867;28;88068;-74
2023/01/06 00:14:14;;;;;;;0.60;0.10;;;9.20;89.50;;;;;;4993317;28;88851;-75
2023/01/06 00:16:39;;;;;;;1.95;0.40;;;9.10;89.70;;;;;;4995428;28;88720;-74
2023/01/06 00:19:05;;;;;;;2.67;0.85;;;9.10;90.40;;;;;;5005343;28;87629;-74
2023/01/06 00:21:30;;;;;;;3.20;0.93;;;9.10;91.10;;;;;;4995507;28;88860;-73
2023/01/06 00:23:56;;;;;;;2.65;0.73;;;9.00;91.10;;;;;;4992340;28;88395;-74
2023/01/06 00:26:22;;;;;;;4.05;0.82;;;8.90;91.20;;;;;;4995635;28;87952;-74
2023/01/06 00:28:55;;;;;;;2.10;0.50;;;8.80;91.30;;;;;;4997821;28;87174;-74
2023/01/06 00:31:21;;;;;;;1.70;0.30;;;8.70;91.60;;;;;;5000046;28;86479;-74
2023/01/06 00:33:47;;;;;;;1.60;0.25;;;8.70;91.30;;;;;;4996977;28;88066;-73
2023/01/06 00:36:13;;;;;;;1.73;0.30;;;8.60;91.10;;;;;;4999677;28;88533;-72
2023/01/06 00:38:40;;;;;;;1.02;0.20;;;8.60;91.00;;;;;;5000096;28;87901;-73
2023/01/06 00:42:02;;;;;;;1.38;0.22;;;8.70;91.00;;;;;;5000310;28;87005;-73
2023/01/06 00:43:53;;;;;;;1.63;0.30;;;8.60;90.90;;;;;;4999203;28;88219;-74
2023/01/06 00:46:19;;;;;;;1.88;0.43;;;8.60;90.80;;;;;;4999108;28;87589;-74
2023/01/06 00:48:45;;;;;;;1.13;0.15;;;8.60;90.80;;;;;;5000039;28;87093;-72
2023/01/06 00:51:10;;;;;;;1.52;0.22;;;8.70;90.80;;;;;;5002074;28;87679;-75
2023/01/06 00:53:36;;;;;;;0.98;0.20;;;8.70;90.80;;;;;;5007628;28;87687;-73
2023/01/06 00:56:02;;;;;;;1.42;0.22;;;8.70;90.90;;;;;;4997525;28;88265;-75
2023/01/06 00:58:31;;;;;;;0.90;0.20;;;8.60;90.90;;;;;;5000443;28;87396;-73
2023/01/06 01:00:57;;;;;;;1.35;0.20;;;8.60;91.00;;;;;;5000686;28;87123;-74
2023/01/06 01:03:24;;;;;;;2.30;0.40;;;8.60;91.00;;;;;;4999369;28;89075;-73
2023/01/06 01:05:49;;;;;;;1.13;0.30;;;8.60;90.90;;;;;;4985992;28;89561;-75
2023/01/06 01:08:15;;;;;;;3.42;0.20;;;8.60;90.80;;;;;;4996079;28;87394;-72
2023/01/06 01:10:41;;;;;;;1.10;0.10;;;8.60;90.70;;;;;;4996088;28;87317;-71
2023/01/06 01:13:06;;;;;;;1.08;0.10;;;8.70;90.70;;;;;;4998394;28;87698;-75
2023/01/06 01:15:32;;;;;;;1.20;0.10;;;8.60;90.40;;;;;;4997687;28;87913;-75
2023/01/06 01:17:58;;;;;;;0.77;0.13;;;8.70;90.30;;;;;;4998704;28;87537;-75
2023/01/06 01:20:23;;;;;;;0.90;0.10;;;8.70;90.20;;;;;;4998733;28;87133;-74
2023/01/06 01:22:49;;;;;;;2.08;0.10;;;8.70;90.10;;;;;;4994913;28;87596;-73
2023/01/06 01:25:15;;;;;;;1.30;0.10;;;8.70;90.00;;;;;;4999875;28;87647;-74
2023/01/06 01:27:40;;;;;;;0.80;0.10;;;8.70;89.90;;;;;;4995228;28;88344;-75
2023/01/06 01:30:06;;;;;;;0.75;0.10;;;8.70;89.80;;;;;;4995778;28;87725;-71
2023/01/06 01:32:32;;;;;;;1.10;0.10;;;8.70;89.40;;;;;;4995760;28;88042;-71
2023/01/06 01:34:58;;;;;;;1.08;0.10;;;8.70;89.10;;;;;;4998206;28;87318;-70
2023/01/06 01:37:23;;;;;;;0.50;0.00;;;8.80;88.60;;;;;;4998077;28;88796;-74
2023/01/06 01:39:49;;;;;;;1.80;0.10;;;8.80;88.20;;;;;;4994942;28;87324;-72
2023/01/06 01:42:18;;;;;;;0.95;0.10;;;8.90;87.70;;;;;;5000102;28;87151;-72
2023/01/06 01:44:57;;;;;;;0.70;0.10;;;8.90;87.30;;;;;;4998018;28;87985;-73
2023/01/06 01:47:34;;;;;;;0.90;0.10;;;8.90;87.00;;;;;;4997055;28;87329;-73
2023/01/06 01:50:41;;;;;;;0.70;0.10;;;9.00;87.00;;;;;;4998564;28;87500;-72
2023/01/06 01:53:18;;;;;;;0.70;0.10;;;9.00;86.80;;;;;;4927660;28;89683;-71
2023/01/06 01:55:44;;;;;;;;;;;9.00;86.60;;;;;;4935367;28;88241;-74
2023/01/06 01:58:12;;;;;;;0.70;0.10;;;9.00;86.50;;;;;;4966910;28;87504;-74
2023/01/06 02:00:39;;;;;;;0.75;0.10;;;9.00;86.50;;;;;;5008710;28;87004;-74
2023/01/06 02:03:06;;;;;;;0.93;0.10;;;9.00;86.50;;;;;;4998334;28;88213;-72
2023/01/06 02:05:36;;;;;;;0.70;0.10;;;8.90;86.70;;;;;;4996085;28;88382;-73
2023/01/06 02:08:05;;;;;;;;;;;8.90;86.50;;;;;;4996188;28;87371;-73
2023/01/06 02:10:30;;;;;;;0.93;0.10;;;8.90;86.50;;;;;;4993271;28;87171;-73
2023/01/06 02:12:58;;;;;;;0.75;0.10;;;8.90;86.40;;;;;;4998640;28;87559;-72
2023/01/06 02:15:27;;;;;;;0.90;0.10;;;8.90;86.40;;;;;;4991402;28;87953;-73
2023/01/06 02:18:02;;;;;;;1.35;0.10;;;8.90;86.40;;;;;;4998637;28;88037;-73
2023/01/06 02:20:33;;;;;;;1.80;0.30;;;8.80;86.80;;;;;;4997930;28;87305;-71
2023/01/06 02:23:26;;;;;;;0.90;0.15;;;8.80;87.80;;;;;;4997989;28;88077;-75
2023/01/06 02:25:57;;;;;;;0.68;0.10;;;8.80;86.70;;;;;;4995735;28;87430;-74
2023/01/06 02:28:42;;;;;;;0.60;0.10;;;8.80;86.50;;;;;;4995689;28;87042;-74
2023/01/06 02:31:26;;;;;;;0.85;0.15;;;8.80;86.90;;;;;;4991067;28;87245;-72
2023/01/06 02:34:26;;;;;;;3.28;1.13;;;8.70;87.50;;;;;;4998192;28;87764;-73
2023/01/06 02:37:01;;;;;;;3.58;1.50;;;8.60;90.80;;;;;;4989173;28;87230;-71
2023/01/06 02:39:45;;;;;;;4.32;1.80;;;8.50;91.10;;;;;;4996335;28;88189;-72
2023/01/06 02:42:49;;;;;;;2.42;0.38;;;8.30;91.30;;;;;;4992734;28;87304;-72
2023/01/06 02:45:27;;;;;;;2.30;0.40;;;8.10;90.60;;;;;;4957219;28;88626;-74
2023/01/06 02:48:19;;;;;;;3.50;0.40;;;7.90;90.60;;;;;;4994857;28;88135;-74
2023/01/06 02:51:00;;;;;;;2.60;0.55;;;7.70;90.60;;;;;;4997923;28;87474;-72
2023/01/06 02:53:58;;;;;;;2.20;0.40;;;7.40;90.80;;;;;;4994930;28;87779;-72
2023/01/06 02:56:30;;;;;;;3.03;0.77;;;7.30;91.00;;;;;;4970408;28;88751;-73
2023/01/06 02:59:08;;;;;;;1.63;0.43;;;7.20;91.30;;;;;;4991480;28;87166;-73
2023/01/06 03:01:40;;;;;;;1.77;0.50;;;7.00;91.50;;;;;;4997068;28;87537;-73
2023/01/06 03:04:15;;;;;;;5.95;0.68;;;6.90;91.70;;;;;;4996905;28;86786;-74
2023/01/06 03:06:45;;;;;;;2.17;0.50;;;6.90;91.90;;;;;;4996021;28;88570;-74
2023/01/06 03:09:16;;;;;;;1.92;0.40;;;6.80;91.80;;;;;;5001967;28;88609;-74
2023/01/06 03:11:43;;;;;;;1.95;0.40;;;6.80;92.00;;;;;;4994992;28;88040;-75
2023/01/06 03:14:19;;;;;;;2.97;0.50;;;6.70;92.20;;;;;;4995656;28;87911;-73
2023/01/06 03:16:45;;;;;;;2.45;0.60;;;6.60;92.30;;;;;;4990586;28;88608;-73
2023/01/06 03:19:10;;;;;;;2.38;0.60;;;6.50;92.40;;;;;;4986302;28;89201;-72
2023/01/06 03:21:40;;;;;;;2.95;0.55;;;6.50;92.10;;;;;;4996606;28;88915;-73
2023/01/06 03:24:08;;;;;;;1.63;0.43;;;6.40;92.60;;;;;;4997111;28;87339;-74
2023/01/06 03:26:36;;;;;;;1.83;0.50;;;6.40;92.90;;;;;;4995270;28;87951;-73
2023/01/06 03:29:05;;;;;;;1.80;0.40;;;6.40;92.80;;;;;;4996556;28;87690;-73
2023/01/06 03:32:02;;;;;;;2.70;0.65;;;6.30;92.80;;;;;;4993320;28;88770;-72
2023/01/06 03:34:39;;;;;;;2.90;0.68;;;6.30;93.00;;;;;;4997610;28;87320;-73
2023/01/06 03:37:30;;;;;;;2.67;0.82;;;6.30;93.10;;;;;;4993712;28;88617;-72
2023/01/06 03:40:19;;;;;;;3.45;0.98;;;6.30;93.30;;;;;;4984473;28;88842;-73
2023/01/06 03:43:11;;;;;;;5.22;0.95;;;6.20;93.40;;;;;;4992971;28;87933;-72
2023/01/06 03:46:07;;;;;;;3.20;0.80;;;6.20;93.60;;;;;;4994973;28;87332;-72
2023/01/06 03:48:41;;;;;;;4.60;1.02;;;6.20;93.60;;;;;;4994769;28;88805;-73
2023/01/06 03:51:32;;;;;;;4.22;1.25;;;6.10;93.70;;;;;;4996304;28;88124;-72
2023/01/06 03:54:04;;;;;;;4.00;1.63;;;6.10;94.10;;;;;;4992464;28;87380;-73
2023/01/06 03:56:42;;;;;;;4.57;1.90;;;6.10;94.00;;;;;;4995807;28;86653;-73
2023/01/06 03:59:23;;;;;;;3.50;1.30;;;6.10;94.70;;;;;;4995290;28;88378;-73
2023/01/06 04:01:49;;;;;;;4.57;1.73;;;6.10;94.50;;;;;;4998485;28;86999;-73
2023/01/06 04:04:16;;;;;;;3.80;1.77;;;6.00;94.60;;;;;;4999981;28;88751;-72
2023/01/06 04:06:42;;;;;;;4.20;1.83;;;6.10;94.80;;;;;;4994663;28;87444;-74
2023/01/06 04:09:08;;;;;;;4.47;1.90;;;6.10;95.20;;;;;;4999514;28;88214;-73
2023/01/06 04:14:18;;;;;;;4.35;2.03;;;6.00;95.20;;;;;;5000759;28;87531;-73
2023/01/06 04:16:44;;;;;;;5.57;2.30;;;5.90;95.70;;;;;;5005777;28;87271;-72
2023/01/06 04:19:09;;;;;;;7.22;2.22;;;5.90;96.60;;;;;;4999839;28;88031;-72
2023/01/06 04:21:35;;;;;;;6.55;2.08;;;5.90;97.10;;;;;;4999909;28;87406;-72
2023/01/06 04:24:01;;;;;;;4.43;1.90;;;6.00;96.80;;;;;;4996775;28;87421;-74
2023/01/06 04:26:26;;;;;;;6.22;2.35;;;6.00;97.20;;;;;;5000243;28;87447;-73
2023/01/06 04:28:52;;;;;;;5.45;2.08;;;6.00;97.30;;;;;;4998735;28;88870;-74
2023/01/06 04:31:18;;;;;;;4.88;1.85;;;5.90;97.20;;;;;;4997931;28;88241;-74
2023/01/06 04:33:43;;;;;;;5.07;2.58;;;5.90;98.00;;;;;;4997270;28;87533;-74
2023/01/06 04:36:09;;;;;;;5.55;2.13;;;5.80;98.10;;;;;;4999095;28;87336;-73
2023/01/06 04:38:35;;;;;;;5.13;2.15;;;5.80;97.50;;;;;;4998043;28;87679;-74
2023/01/06 04:41:00;;;;;;;5.40;1.90;;;5.80;97.40;;;;;;4997863;28;87815;-74
2023/01/06 04:43:26;;;;;;;4.05;2.13;;;5.70;97.70;;;;;;4998511;28;87397;-73
2023/01/06 04:45:52;;;;;;;5.22;2.35;;;5.70;98.10;;;;;;4997515;28;86835;-73
2023/01/06 04:48:18;;;;;;;5.10;2.03;;;5.70;98.30;;;;;;4998378;28;88894;-74
2023/01/06 04:50:43;;;;;;;5.25;2.00;;;5.70;97.70;;;;;;4997249;28;87667;-73
2023/01/06 04:53:11;;;;;;;3.97;1.90;;;5.60;97.90;;;;;;4992269;28;88344;-73
2023/01/06 04:55:38;;;;;;;5.28;2.00;;;5.60;98.80;;;;;;4999929;28;87720;-72
2023/01/06 04:58:04;;;;;;;3.40;1.70;;;5.50;98.80;;;;;;4996651;28;87358;-72
2023/01/06 05:00:29;;;;;;;3.75;1.52;;;5.50;98.80;;;;;;4997655;28;87229;-72
2023/01/06 05:02:55;;;;;;;4.38;1.90;;;5.50;99.10;;;;;;4997839;28;87482;-73
2023/01/06 05:05:21;;;;;;;4.15;1.73;;;5.50;99.90;;;;;;4995093;28;87567;-73
2023/01/06 05:07:46;;;;;;;4.80;2.42;;;5.40;99.80;;;;;;4998406;28;88139;-73
2023/01/06 05:10:12;;;;;;;11.23;2.65;;;5.40;99.90;;;;;;4993349;28;87308;-73
2023/01/06 05:12:38;;;;;;;6.28;1.85;;;5.40;99.20;;;;;;4998233;28;87501;-74
2023/01/06 05:15:04;;;;;;;6.25;2.22;;;5.40;99.70;;;;;;4998525;28;87492;-75
2023/01/06 05:17:30;;;;;;;3.25;1.45;;;5.40;99.90;;;;;;4993370;28;89913;-75
2023/01/06 05:19:55;;;;;;;4.05;1.98;;;5.40;99.90;;;;;;4999465;28;88273;-74
2023/01/06 05:22:21;;;;;;;5.13;1.88;;;5.40;99.60;;;;;;4996151;28;87154;-74
2023/01/06 05:24:47;;;;;;;3.83;1.88;;;5.30;99.30;;;;;;5000704;28;87419;-74
2023/01/06 05:27:13;;;;;;;3.80;1.98;;;5.30;99.10;;;;;;4996544;28;88976;-73
2023/01/06 05:29:38;;;;;;;4.72;2.00;;;5.30;99.60;;;;;;4997269;28;88425;-73
2023/01/06 05:32:05;;;;;;;4.78;2.03;;;5.30;99.90;;;;;;4997390;28;87322;-72
2023/01/06 05:34:30;;;;;;;4.10;1.92;;;5.20;99.60;;;;;;4999186;28;86524;-72
2023/01/06 05:36:56;;;;;;;4.97;1.90;;;5.20;99.30;;;;;;4996689;28;88327;-73
2023/01/06 05:39:23;;;;;;;4.22;2.20;;;5.20;99.10;;;;;;4998384;28;87828;-72
2023/01/06 05:41:49;;;;;;;3.85;1.77;;;5.20;99.80;;;;;;5001115;28;88175;-72
2023/01/06 05:44:14;;;;;;;4.47;1.52;;;5.20;99.90;;;;;;4997563;28;87345;-73
2023/01/06 05:46:40;;;;;;;7.53;2.22;;;5.20;99.70;;;;;;4995297;28;88255;-73
2023/01/06 05:49:06;;;;;;;4.88;2.22;;;5.10;99.90;;;;;;4997791;28;87381;-73
2023/01/06 05:51:31;;;;;;;5.63;2.38;;;5.10;99.90;;;;;;4998303;28;87465;-73
2023/01/06 05:53:57;;;;;;;3.75;1.90;;;5.10;99.90;;;;;;4998761;28;87225;-74
2023/01/06 05:56:23;;;;;;;4.57;2.17;;;5.10;99.90;;;;;;4992424;28;88075;-74
2023/01/06 05:58:51;;;;;;;5.53;2.42;;;5.10;99.90;;;;;;4999851;28;87358;-74
2023/01/06 06:01:23;;;;;;;5.15;2.22;;;5.00;99.90;;;;;;4996625;28;87441;-72
2023/01/06 06:03:49;;;;;;;6.65;2.70;;;5.00;99.90;;;;;;4986719;28;87364;-72
2023/01/06 06:06:16;;;;;;;7.40;2.03;;;4.90;99.90;;;;;;4994358;28;88912;-74
2023/01/06 06:08:42;;;;;;;5.10;2.22;;;4.90;99.90;;;;;;4993328;28;87490;-72
2023/01/06 06:11:10;;;;;;;5.97;2.47;;;4.90;99.90;;;;;;4998035;28;87452;-74
2023/01/06 06:13:36;;;;;;;6.38;2.65;;;4.90;99.90;;;;;;4995364;28;87453;-74
2023/01/06 06:16:11;;;;;;;6.63;3.03;;;4.80;99.90;;;;;;4994399;28;88007;-74
2023/01/06 06:18:41;;;;;;;6.97;2.63;;;4.80;99.90;;;;;;4993455;28;88868;-74
2023/01/06 06:21:13;;;;;;;5.38;3.08;;;4.80;99.90;;;;;;4998087;28;87013;-73
2023/01/06 06:23:39;;;;;;;7.78;3.28;;;4.80;99.90;;;;;;4998772;28;86712;-72
2023/01/06 06:26:05;;;;;;;7.32;2.30;;;4.80;99.90;;;;;;4996255;28;87994;-74
2023/01/06 06:28:33;;;;;;;4.50;2.58;;;4.80;99.90;;;;;;4994446;28;87504;-73
2023/01/06 06:31:13;;;;;;;5.45;2.25;;;4.90;99.90;;;;;;4995983;28;88407;-72
2023/01/06 06:33:39;;;;;;;7.53;3.33;;;4.90;99.90;;;;;;4997021;28;87856;-75
2023/01/06 06:36:10;;;;;;;9.10;3.55;;;4.90;99.90;;;;;;4996784;28;87792;-75
2023/01/06 06:38:36;;;;;;;46.25;5.15;;;4.90;99.90;;;;;;4995957;28;88036;-75
2023/01/06 06:41:02;;;;;;;21.05;4.80;;;5.00;99.90;;;;;;4993863;28;87454;-75
2023/01/06 06:43:28;;;;;;;33.03;4.63;;;5.00;99.90;;;;;;4996614;28;87281;-74
2023/01/06 06:45:53;;;;;;;76.65;5.07;;;5.00;99.90;;;;;;4996171;28;88178;-74
2023/01/06 06:48:19;;;;;;;144.77;6.15;;;4.90;99.90;;;;;;5000324;28;86690;-72
2023/01/06 06:50:45;;;;;;;134.75;6.00;;;4.90;99.90;;;;;;5001565;28;87446;-73
2023/01/06 06:53:10;;;;;;;62.92;5.70;;;4.80;99.90;;;;;;4996048;28;87534;-71
2023/01/06 06:55:36;;;;;;;66.28;5.40;;;4.80;99.90;;;;;;4995964;28;88529;-72
2023/01/06 06:58:02;;;;;;;38.03;4.80;;;4.80;99.90;;;;;;4995237;28;88028;-73
2023/01/06 07:00:27;;;;;;;17.77;5.43;;;4.70;99.90;;;;;;4995048;28;87386;-73
2023/01/06 07:02:53;;;;;;;24.13;4.22;;;4.70;99.90;;;;;;4997192;28;87448;-72
2023/01/06 07:05:19;;;;;;;136.70;7.93;;;4.80;99.90;;;;;;4995314;28;87133;-73
2023/01/06 07:07:45;;;;;;;31.50;7.15;;;4.70;99.90;;;;;;4995391;28;87722;-72
2023/01/06 07:10:14;;;;;;;95.07;5.43;;;4.70;99.90;;;;;;4996249;28;87891;-74
2023/01/06 07:12:40;;;;;;;54.25;5.25;;;4.80;99.90;;;;;;4993734;28;87059;-75
2023/01/06 07:15:06;;;;;;;30.15;3.85;;;4.80;99.90;;;;;;4996394;28;87775;-75
2023/01/06 07:17:32;;;;;;;50.17;4.50;;;4.80;99.90;;;;;;4987183;28;87620;-75
2023/01/06 07:19:58;;;;;;;74.70;5.00;;;4.90;99.90;;;;;;4985660;28;90045;-74
2023/01/06 07:22:23;;;;;;;72.03;3.88;;;4.80;99.90;;;;;;4995362;28;87126;-72
2023/01/06 07:24:49;;;;;;;57.15;3.85;;;4.90;99.90;;;;;;4991835;28;88708;-75
2023/01/06 07:27:15;;;;;;;58.08;3.83;;;4.90;99.90;;;;;;4987450;28;87567;-73
2023/01/06 07:29:40;;;;;;;61.35;4.25;;;5.00;99.90;;;;;;4988584;28;87099;-72
2023/01/06 07:32:06;;;;;;;104.82;4.80;;;5.00;99.90;;;;;;4990091;28;89514;-71
2023/01/06 07:34:32;;;;;;;145.90;4.85;;;5.10;99.90;;;;;;4990828;28;87841;-71
2023/01/06 07:36:57;;;;;;;160.82;6.85;;;5.10;99.90;;;;;;4983822;28;88528;-71
2023/01/06 07:39:23;;;;;;;72.47;4.22;;;5.10;99.90;;;;;;4992049;28;89077;-73
2023/01/06 07:41:49;;;;;;;109.63;5.32;;;5.10;99.90;;;;;;4999261;28;88308;-72
2023/01/06 07:44:14;;;;;;;193.95;6.50;;;5.10;99.90;;;;;;4982060;28;89729;-74
2023/01/06 07:46:40;;;;;;;60.40;4.60;;;5.10;99.90;;;;;;4997337;28;91989;-75
2023/01/06 07:49:05;;;;;;;42.33;3.80;;;5.20;99.90;;;;;;4993706;28;87447;-73
2023/01/06 07:51:31;;;;;;;88.30;4.20;;;5.20;99.90;;;;;;4998015;28;87756;-74
2023/01/06 07:53:57;;;;;;;49.05;4.30;;;5.20;99.90;;;;;;4987223;28;88717;-73
2023/01/06 07:56:23;;;;;;;86.45;4.10;;;5.40;99.90;;;;;;4984394;28;88728;-74
2023/01/06 07:58:49;;;;;;;92.03;4.57;;;5.50;99.90;;;;;;4979492;28;88592;-73
2023/01/06 08:01:15;;;;;;;89.00;4.07;;;5.60;99.90;;;;;;4985499;28;86773;-73
2023/01/06 08:03:40;;;;;;;74.57;4.60;;;5.70;99.90;;;;;;4986455;28;88022;-76
2023/01/06 08:06:08;;;;;;;98.53;5.60;;;5.60;99.90;;;;;;4981190;28;89351;-73
2023/01/06 08:08:36;;;;;;;48.25;4.72;;;5.70;99.90;;;;;;4984490;28;90370;-73
2023/01/06 08:11:01;;;;;;;31.40;5.38;;;5.60;99.90;;;;;;4988034;28;88923;-74
2023/01/06 08:13:27;;;;;;;45.53;4.30;;;5.70;99.90;;;;;;4994232;28;90604;-72
2023/01/06 08:15:53;;;;;;;50.08;3.67;;;5.90;99.90;;;;;;4987262;28;87482;-72
2023/01/06 08:18:19;;;;;;;60.88;3.30;;;6.00;99.90;;;;;;4986733;28;87761;-73
2023/01/06 08:20:44;;;;;;;30.13;2.75;;;6.10;99.90;;;;;;4987674;28;88101;-74
2023/01/06 08:23:10;;;;;;;51.72;3.60;;;6.20;99.90;;;;;;4986271;28;88168;-73
2023/01/06 08:25:36;;;;;;;11.20;2.90;;;6.40;99.90;;;;;;4989518;28;87889;-71
2023/01/06 08:28:01;;;;;;;12.75;3.20;;;6.60;99.90;;;;;;4988748;28;88814;-72
2023/01/06 08:30:27;;;;;;;33.42;3.50;;;7.00;99.90;;;;;;4991575;28;88041;-76
2023/01/06 08:32:57;;;;;;;12.27;2.75;;;7.40;99.90;;;;;;4988946;28;89809;-74
2023/01/06 08:35:22;;;;;;;8.98;2.65;;;7.70;97.80;;;;;;4988693;28;89434;-75
2023/01/06 08:37:48;;;;;;;21.20;3.33;;;7.60;96.30;;;;;;4988934;28;89330;-75
2023/01/06 08:40:14;;;;;;;23.35;3.38;;;7.50;95.70;;;;;;4986990;28;87619;-74
2023/01/06 08:42:39;;;;;;;95.88;4.78;;;7.10;96.70;;;;;;4989018;28;89149;-74
2023/01/06 08:45:06;;;;;;;147.60;5.25;;;7.00;96.80;;;;;;4988694;28;87747;-74
2023/01/06 08:47:33;;;;;;;69.53;4.13;;;7.00;97.20;;;;;;4989175;28;87570;-75
2023/01/06 08:49:59;;;;;;;24.65;3.95;;;7.00;97.00;;;;;;4991109;28;88036;-74
2023/01/06 08:52:25;;;;;;;124.60;5.55;;;6.90;97.90;;;;;;4991697;28;88534;-74
2023/01/06 08:54:50;;;;;;;38.03;6.70;;;7.00;97.30;;;;;;4995971;28;88081;-74
2023/01/06 08:57:16;;;;;;;22.13;4.95;;;7.30;97.20;;;;;;4986115;28;88336;-75
2023/01/06 08:59:42;;;;;;;13.82;3.85;;;7.50;97.00;;;;;;4996867;28;87549;-74
2023/01/06 09:02:11;;;;;;;17.20;4.28;;;7.50;96.30;;;;;;4995876;28;88949;-74
2023/01/06 09:04:36;;;;;;;23.48;5.95;;;7.50;95.90;;;;;;5004284;28;87753;-74
2023/01/06 09:07:02;;;;;;;44.97;5.80;;;7.60;95.70;;;;;;5004531;28;87354;-74
2023/01/06 09:09:28;;;;;;;14.13;3.50;;;7.50;95.80;;;;;;4998048;28;89322;-74
2023/01/06 09:11:53;;;;;;;29.60;3.85;;;7.70;95.00;;;;;;4996016;28;88717;-74
2023/01/06 09:14:19;;;;;;;24.00;4.68;;;7.90;94.90;;;;;;4998073;28;87818;-75
2023/01/06 09:16:47;;;;;;;48.78;5.03;;;7.90;94.10;;;;;;4999209;28;87355;-75
2023/01/06 09:19:15;;;;;;;20.55;3.50;;;8.10;93.80;;;;;;4998504;28;87625;-73
2023/01/06 09:21:41;;;;;;;11.18;3.80;;;8.40;93.00;;;;;;4998956;28;88379;-74
2023/01/06 09:24:11;;;;;;;11.57;3.35;;;8.60;92.60;;;;;;4996478;28;88827;-73
2023/01/06 09:26:37;;;;;;;;;;;9.00;92.30;;;;;;4993502;28;87480;-75
2023/01/06 09:29:25;;;;;;;11.25;5.88;;;9.60;90.80;;;;;;5001846;28;87365;-74
2023/01/06 09:31:51;;;;;;;10.27;4.28;;;10.40;89.70;;;;;;4989874;28;89776;-74
2023/01/06 09:34:16;;;;;;;7.35;3.42;;;10.40;87.60;;;;;;4987526;28;89473;-75
2023/01/06 09:36:42;;;;;;;5.78;2.90;;;10.20;87.80;;;;;;4994356;28;87416;-75
2023/01/06 09:39:07;;;;;;;6.63;3.25;;;10.50;87.70;;;;;;4988519;28;86635;-73
2023/01/06 09:41:39;;;;;;;7.13;3.15;;;10.80;85.70;;;;;;4983418;28;88331;-77
2023/01/06 09:44:09;;;;;;;7.43;2.85;;;10.90;84.30;;;;;;4991901;28;88474;-76
2023/01/06 09:46:39;;;;;;;7.10;3.28;;;10.90;83.90;;;;;;4987085;28;89934;-74
2023/01/06 09:49:28;;;;;;;10.02;3.75;;;10.80;85.40;;;;;;4993444;28;87744;-75
2023/01/06 09:52:11;;;;;;;13.30;4.57;;;10.90;84.70;;;;;;4987129;28;88100;-77
2023/01/06 09:54:44;;;;;;;10.38;4.90;;;11.20;84.30;;;;;;4990452;28;88439;-76
2023/01/06 09:57:21;;;;;;;9.20;4.70;;;12.90;81.30;;;;;;4989686;28;87447;-76
2023/01/06 10:00:04;;;;;;;9.30;4.97;;;14.00;75.40;;;;;;4988096;28;87327;-77
2023/01/06 10:02:36;;;;;;;8.48;4.90;;;13.60;76.00;;;;;;4986824;28;90403;-75
2023/01/06 10:05:14;;;;;;;9.55;5.20;;;13.00;78.10;;;;;;4985418;28;88922;-76
2023/01/06 10:08:23;;;;;;;8.88;4.68;;;12.70;79.20;;;;;;4992675;28;87634;-76
2023/01/06 10:11:04;;;;;;;8.90;4.63;;;12.40;80.10;;;;;;4987872;28;87537;-76
2023/01/06 10:13:55;;;;;;;8.50;4.63;;;12.20;81.10;;;;;;4989169;28;89123;-77
2023/01/06 10:16:59;;;;;;;8.10;5.13;;;11.90;81.50;;;;;;4982744;28;88529;-76
2023/01/06 10:19:48;;;;;;;10.65;4.88;;;12.00;82.10;;;;;;4990996;28;87467;-75
2023/01/06 10:22:52;;;;;;;7.95;4.72;;;11.90;82.30;;;;;;4989517;28;88594;-75
2023/01/06 10:25:21;;;;;;;9.68;4.80;;;11.80;83.00;;;;;;4969338;28;89232;-75
2023/01/06 10:27:55;;;;;;;8.07;4.63;;;11.80;82.30;;;;;;4987464;28;87429;-75
2023/01/06 10:30:43;;;;;;;8.15;4.63;;;11.70;82.60;;;;;;4987781;28;87379;-76
2023/01/06 10:33:30;;;;;;;8.10;4.47;;;11.70;83.70;;;;;;4987626;28;86471;-75
2023/01/06 10:35:57;;;;;;;8.75;4.82;;;11.90;82.80;;;;;;4987259;28;89287;-75
2023/01/06 10:38:34;;;;;;;8.00;4.55;;;11.90;82.30;;;;;;4988088;28;87892;-76
2023/01/06 10:41:11;;;;;;;13.10;4.10;;;11.80;82.50;;;;;;4984930;28;88423;-76
2023/01/06 10:43:36;;;;;;;13.15;4.13;;;11.50;83.10;;;;;;4992567;28;87389;-74
2023/01/06 10:46:02;;;;;;;7.90;4.38;;;11.30;83.50;;;;;;4994887;28;88966;-62
2023/01/06 10:48:29;;;;;;;7.30;3.72;;;11.20;85.70;;;;;;4986839;28;89598;-70
2023/01/06 10:50:56;;;;;;;11.75;4.25;;;11.20;85.70;;;;;;4987077;28;87243;-69
2023/01/06 10:53:22;;;;;;;7.88;3.42;;;11.20;85.20;;;;;;4984267;28;87524;-74
2023/01/06 10:55:57;;;;;;;8.48;4.20;;;11.00;85.10;;;;;;4989609;28;88231;-73
2023/01/06 10:58:39;;;;;;;12.65;4.22;;;10.90;85.90;;;;;;4987802;28;87324;-76
2023/01/06 11:01:16;;;;;;;9.48;3.60;;;10.70;88.60;;;;;;4989365;28;87766;-77
2023/01/06 11:03:44;;;;;;;6.82;3.58;;;10.70;87.00;;;;;;4988486;28;87902;-77
2023/01/06 11:06:30;;;;;;;6.15;3.35;;;10.70;86.80;;;;;;4991644;28;89396;-77
2023/01/06 11:08:56;;;;;;;7.55;2.78;;;10.90;87.20;;;;;;4991560;28;88489;-77
2023/01/06 11:11:22;;;;;;;5.55;2.30;;;11.10;86.80;;;;;;4988849;28;89436;-75
2023/01/06 11:13:51;;;;;;;4.75;2.08;;;11.40;86.10;;;;;;4990312;28;88856;-77
2023/01/06 11:16:23;;;;;;;8.27;2.88;;;11.60;83.30;;;;;;4989565;28;91111;-77
2023/01/06 11:18:59;;;;;;;4.70;2.35;;;11.60;82.60;;;;;;4986955;28;87516;-77
2023/01/06 11:21:48;;;;;;;4.72;1.73;;;11.60;82.20;;;;;;4988146;28;87820;-76
2023/01/06 11:24:20;;;;;;;3.35;1.52;;;11.60;81.20;;;;;;4978820;28;87044;-77
2023/01/06 11:26:56;;;;;;;5.90;1.40;;;11.60;79.70;;;;;;4965033;28;89439;-78
2023/01/06 11:29:29;;;;;;;2.53;1.10;;;11.80;80.00;;;;;;4975966;28;90078;-77
2023/01/06 11:31:58;;;;;;;4.03;1.50;;;11.90;78.80;;;;;;4984794;28;89935;-76
2023/01/06 11:34:27;;;;;;;3.50;1.42;;;12.00;79.20;;;;;;4988484;28;89533;-77
2023/01/06 11:36:54;;;;;;;6.30;1.83;;;12.10;78.50;;;;;;4987263;28;87940;-77
2023/01/06 11:39:30;;;;;;;4.03;1.50;;;12.20;78.70;;;;;;4984257;28;88531;-76
2023/01/06 11:42:02;;;;;;;5.05;1.48;;;12.40;78.70;;;;;;4973230;28;88775;-77
2023/01/06 11:44:37;;;;;;;3.85;1.55;;;12.50;76.80;;;;;;4973520;28;87991;-76
2023/01/06 11:47:10;;;;;;;7.68;1.75;;;12.50;78.30;;;;;;4981186;28;89045;-76
2023/01/06 11:49:38;;;;;;;8.93;2.15;;;12.60;78.20;;;;;;4976988;28;87814;-77
2023/01/06 11:52:25;;;;;;;6.65;2.00;;;12.80;78.60;;;;;;4984788;28;87600;-77
2023/01/06 11:55:05;;;;;;;5.90;1.58;;;12.90;77.90;;;;;;4980595;28;89116;-76
2023/01/06 11:57:48;;;;;;;8.70;1.80;;;12.80;78.10;;;;;;4987948;28;88472;-76
2023/01/06 12:00:35;;;;;;;4.22;1.92;;;12.90;77.30;;;;;;4984086;28;88785;-77
2023/01/06 12:03:09;;;;;;;5.93;1.85;;;12.90;77.80;;;;;;4986121;28;87392;-72
2023/01/06 12:05:53;;;;;;;6.28;2.70;;;12.80;78.40;;;;;;4994029;28;88700;-76
2023/01/06 12:09:00;;;;;;;4.70;2.03;;;12.90;78.90;;;;;;4981838;28;90513;-76
2023/01/06 12:11:52;;;;;;;5.88;1.80;;;13.00;78.90;;;;;;4921569;28;87773;-72
2023/01/06 12:14:20;;;;;;;4.68;2.30;;;13.00;79.90;;;;;;4920415;28;88918;-74
2023/01/06 12:16:51;;;;;;;5.38;2.08;;;12.90;79.40;;;;;;4952977;28;87411;-76
2023/01/06 12:19:31;;;;;;;5.63;2.75;;;12.90;79.40;;;;;;4975938;28;89843;-76
2023/01/06 12:21:58;;;;;;;4.38;1.42;;;12.90;80.60;;;;;;4990629;28;88518;-76
2023/01/06 12:24:25;;;;;;;3.80;1.63;;;12.80;79.70;;;;;;4994316;28;88381;-76
2023/01/06 12:26:52;;;;;;;3.88;1.40;;;12.80;80.00;;;;;;4989832;28;88803;-76
2023/01/06 12:29:20;;;;;;;4.78;1.48;;;12.70;80.10;;;;;;4987580;28;88618;-76
2023/01/06 12:32:07;;;;;;;3.55;1.45;;;12.70;79.80;;;;;;4990828;28;87631;-76
2023/01/06 12:34:33;;;;;;;3.10;1.50;;;12.70;78.80;;;;;;4986770;28;88195;-77
2023/01/06 12:37:05;;;;;;;3.88;1.67;;;12.60;78.80;;;;;;4982104;28;87453;-76
2023/01/06 12:39:42;;;;;;;2.90;1.30;;;12.60;79.10;;;;;;4993443;28;88131;-76
2023/01/06 12:42:23;;;;;;;2.55;1.27;;;12.50;79.20;;;;;;4984563;28;87873;-76
2023/01/06 12:44:51;;;;;;;3.13;1.23;;;12.30;80.30;;;;;;4984567;28;87466;-76
2023/01/06 12:47:22;;;;;;;3.60;1.40;;;12.10;81.10;;;;;;4990359;28;87628;-76
2023/01/06 12:49:54;;;;;;;3.00;1.40;;;12.00;81.70;;;;;;4985022;28;88974;-76
2023/01/06 12:52:49;;;;;;;3.15;1.10;;;11.90;82.50;;;;;;4978860;28;88126;-76
2023/01/06 12:55:18;;;;;;;3.70;1.40;;;11.80;82.60;;;;;;4979068;28;88006;-75
2023/01/06 12:57:56;;;;;;;3.67;0.90;;;11.70;83.10;;;;;;4981214;28;88835;-76
2023/01/06 13:00:34;;;;;;;4.20;1.00;;;11.60;83.50;;;;;;4980863;28;88146;-76
2023/01/06 13:03:18;;;;;;;3.58;0.93;;;11.60;83.50;;;;;;4986513;28;89269;-76
2023/01/06 13:06:05;;;;;;;5.32;1.38;;;11.60;83.60;;;;;;4983031;28;88506;-76
2023/01/06 13:09:01;;;;;;;2.42;1.02;;;11.50;83.90;;;;;;4982770;28;86825;-75
2023/01/06 13:11:29;;;;;;;1.95;0.55;;;11.40;83.20;;;;;;4985852;28;88667;-77
2023/01/06 13:14:03;;;;;;;2.28;0.68;;;11.40;82.80;;;;;;4982287;28;89857;-77
2023/01/06 13:16:38;;;;;;;2.67;0.82;;;11.40;82.70;;;;;;4988318;28;88856;-76